sensor_id;sensor_type;location;lat;lon;timestamp;pressure;altitude;pressure_sealevel;temperature;humidity
82555;BME280;72219;48.186;11.554;2024-02-16T00:02:16;95674.94;;;17.17;46.19
82555;BME280;72219;48.186;11.554;2024-02-16T00:04:43;95672.66;;;17.14;46.40
82555;BME280;72219;48.186;11.554;2024-02-16T00:07:08;95674.66;;;17.12;46.63
82555;BME280;72219;48.186;11.554;2024-02-16T00:09:34;95679.09;;;17.11;46.55
82555;BME280;72219;48.186;11.554;2024-02-16T00:11:59;95678.91;;;17.13;46.59
82555;BME280;72219;48.186;11.554;2024-02-16T00:14:24;95684.75;;;17.15;46.56
82555;BME280;72219;48.186;11.554;2024-02-16T00:16:50;95680.16;;;17.17;46.24
82555;BME280;72219;48.186;11.554;2024-02-16T00:19:17;95670.63;;;17.09;46.31
82555;BME280;72219;48.186;11.554;2024-02-16T00:21:42;95676.91;;;17.15;45.97
82555;BME280;72219;48.186;11.554;2024-02-16T00:24:08;95673.22;;;17.09;46.44
82555;BME280;72219;48.186;11.554;2024-02-16T00:26:34;95669.81;;;17.09;46.30
82555;BME280;72219;48.186;11.554;2024-02-16T00:28:59;95667.19;;;17.09;46.27
82555;BME280;72219;48.186;11.554;2024-02-16T00:31:24;95659.09;;;17.04;46.68
82555;BME280;72219;48.186;11.554;2024-02-16T00:33:51;95662.31;;;17.06;46.65
82555;BME280;72219;48.186;11.554;2024-02-16T00:36:17;95657.44;;;17.03;46.45
82555;BME280;72219;48.186;11.554;2024-02-16T00:38:42;95657.91;;;17.06;46.60
82555;BME280;72219;48.186;11.554;2024-02-16T00:41:07;95668.38;;;17.06;46.37
82555;BME280;72219;48.186;11.554;2024-02-16T00:43:33;95660.53;;;17.06;46.57
82555;BME280;72219;48.186;11.554;2024-02-16T00:45:58;95665.09;;;17.04;46.61
82555;BME280;72219;48.186;11.554;2024-02-16T00:48:24;95662.06;;;17.01;46.62
82555;BME280;72219;48.186;11.554;2024-02-16T00:50:49;95657.81;;;17.00;46.14
82555;BME280;72219;48.186;11.554;2024-02-16T00:53:14;95662.06;;;17.01;46.47
82555;BME280;72219;48.186;11.554;2024-02-16T00:55:40;95658.00;;;16.98;46.76
82555;BME280;72219;48.186;11.554;2024-02-16T00:58:07;95655.03;;;17.01;46.38
82555;BME280;72219;48.186;11.554;2024-02-16T01:00:33;95652.13;;;16.96;46.70
82555;BME280;72219;48.186;11.554;2024-02-16T01:02:59;95647.88;;;16.95;46.76
82555;BME280;72219;48.186;11.554;2024-02-16T01:05:25;95641.50;;;16.97;46.35
82555;BME280;72219;48.186;11.554;2024-02-16T01:07:51;95642.41;;;16.90;46.46
82555;BME280;72219;48.186;11.554;2024-02-16T01:10:16;95650.69;;;16.93;46.61
82555;BME280;72219;48.186;11.554;2024-02-16T01:12:42;95633.22;;;16.94;46.30
82555;BME280;72219;48.186;11.554;2024-02-16T01:15:08;95637.81;;;16.92;46.72
82555;BME280;72219;48.186;11.554;2024-02-16T01:17:33;95646.28;;;16.94;46.37
82555;BME280;72219;48.186;11.554;2024-02-16T01:19:59;95648.25;;;16.92;46.55
82555;BME280;72219;48.186;11.554;2024-02-16T01:22:25;95646.44;;;16.92;46.20
82555;BME280;72219;48.186;11.554;2024-02-16T01:24:50;95645.16;;;16.88;46.29
82555;BME280;72219;48.186;11.554;2024-02-16T01:27:16;95650.38;;;16.88;46.33
82555;BME280;72219;48.186;11.554;2024-02-16T01:29:41;95648.94;;;16.86;46.30
82555;BME280;72219;48.186;11.554;2024-02-16T01:32:07;95646.00;;;16.89;46.47
82555;BME280;72219;48.186;11.554;2024-02-16T01:34:32;95659.50;;;16.92;46.29
82555;BME280;72219;48.186;11.554;2024-02-16T01:36:57;95659.06;;;16.89;46.05
82555;BME280;72219;48.186;11.554;2024-02-16T01:39:24;95659.25;;;16.87;46.12
82555;BME280;72219;48.186;11.554;2024-02-16T01:41:50;95658.41;;;16.87;46.29
82555;BME280;72219;48.186;11.554;2024-02-16T01:44:15;95644.09;;;16.82;46.42
82555;BME280;72219;48.186;11.554;2024-02-16T01:46:42;95653.56;;;16.84;46.37
82555;BME280;72219;48.186;11.554;2024-02-16T01:49:08;95648.13;;;16.85;46.13
82555;BME280;72219;48.186;11.554;2024-02-16T01:51:35;95651.13;;;16.82;46.40
82555;BME280;72219;48.186;11.554;2024-02-16T01:54:01;95639.69;;;16.83;46.49
82555;BME280;72219;48.186;11.554;2024-02-16T01:56:28;95639.31;;;16.86;46.18
82555;BME280;72219;48.186;11.554;2024-02-16T01:58:56;95639.84;;;16.81;46.17
82555;BME280;72219;48.186;11.554;2024-02-16T02:01:22;95641.66;;;16.81;46.48
82555;BME280;72219;48.186;11.554;2024-02-16T02:03:48;95632.38;;;16.78;46.46
82555;BME280;72219;48.186;11.554;2024-02-16T02:06:13;95632.19;;;16.80;46.21
82555;BME280;72219;48.186;11.554;2024-02-16T02:08:40;95626.88;;;16.73;46.19
82555;BME280;72219;48.186;11.554;2024-02-16T02:11:07;95630.59;;;16.79;46.04
82555;BME280;72219;48.186;11.554;2024-02-16T02:13:32;95625.69;;;16.76;46.06
82555;BME280;72219;48.186;11.554;2024-02-16T02:15:58;95634.47;;;16.83;46.01
82555;BME280;72219;48.186;11.554;2024-02-16T02:18:24;95627.97;;;16.79;45.87
82555;BME280;72219;48.186;11.554;2024-02-16T02:20:50;95636.44;;;16.81;46.31
82555;BME280;72219;48.186;11.554;2024-02-16T02:23:16;95633.81;;;16.81;45.97
82555;BME280;72219;48.186;11.554;2024-02-16T02:25:42;95627.97;;;16.79;46.24
82555;BME280;72219;48.186;11.554;2024-02-16T02:28:07;95624.72;;;16.77;46.26
82555;BME280;72219;48.186;11.554;2024-02-16T02:30:33;95640.66;;;16.82;46.07
82555;BME280;72219;48.186;11.554;2024-02-16T02:32:59;95618.03;;;16.74;46.42
82555;BME280;72219;48.186;11.554;2024-02-16T02:35:24;95626.53;;;16.76;46.32
82555;BME280;72219;48.186;11.554;2024-02-16T02:37:50;95632.56;;;16.77;46.15
82555;BME280;72219;48.186;11.554;2024-02-16T02:40:15;95628.94;;;16.78;46.17
82555;BME280;72219;48.186;11.554;2024-02-16T02:42:40;95622.66;;;16.72;46.30
82555;BME280;72219;48.186;11.554;2024-02-16T02:45:06;95611.38;;;16.72;46.18
82555;BME280;72219;48.186;11.554;2024-02-16T02:47:32;95614.44;;;16.75;46.38
82555;BME280;72219;48.186;11.554;2024-02-16T02:49:57;95620.47;;;16.76;45.95
82555;BME280;72219;48.186;11.554;2024-02-16T02:52:23;95621.81;;;16.72;45.85
82555;BME280;72219;48.186;11.554;2024-02-16T02:54:49;95621.63;;;16.73;46.02
82555;BME280;72219;48.186;11.554;2024-02-16T02:57:14;95612.72;;;16.68;46.07
82555;BME280;72219;48.186;11.554;2024-02-16T02:59:40;95622.47;;;16.74;46.11
82555;BME280;72219;48.186;11.554;2024-02-16T03:02:06;95628.31;;;16.76;46.02
82555;BME280;72219;48.186;11.554;2024-02-16T03:04:32;95633.53;;;16.76;45.88
82555;BME280;72219;48.186;11.554;2024-02-16T03:06:59;95636.78;;;16.78;45.70
82555;BME280;72219;48.186;11.554;2024-02-16T03:09:25;95631.75;;;16.76;45.80
82555;BME280;72219;48.186;11.554;2024-02-16T03:11:50;95630.66;;;16.71;45.98
82555;BME280;72219;48.186;11.554;2024-02-16T03:14:16;95634.53;;;16.75;45.83
82555;BME280;72219;48.186;11.554;2024-02-16T03:16:42;95632.00;;;16.67;45.78
82555;BME280;72219;48.186;11.554;2024-02-16T03:19:08;95630.22;;;16.67;45.92
82555;BME280;72219;48.186;11.554;2024-02-16T03:21:36;95637.78;;;16.62;46.25
82555;BME280;72219;48.186;11.554;2024-02-16T03:24:02;95634.47;;;16.68;46.04
82555;BME280;72219;48.186;11.554;2024-02-16T03:26:29;95626.44;;;16.70;46.23
82555;BME280;72219;48.186;11.554;2024-02-16T03:28:57;95630.56;;;16.64;46.19
82555;BME280;72219;48.186;11.554;2024-02-16T03:31:23;95640.00;;;16.65;46.00
82555;BME280;72219;48.186;11.554;2024-02-16T03:33:50;95627.31;;;16.62;46.44
82555;BME280;72219;48.186;11.554;2024-02-16T03:36:17;95632.44;;;16.55;46.15
82555;BME280;72219;48.186;11.554;2024-02-16T03:38:47;95643.78;;;16.62;45.95
82555;BME280;72219;48.186;11.554;2024-02-16T03:41:18;95646.78;;;16.59;46.25
82555;BME280;72219;48.186;11.554;2024-02-16T03:43:44;95644.34;;;16.58;46.26
82555;BME280;72219;48.186;11.554;2024-02-16T03:46:09;95632.63;;;16.54;46.02
82555;BME280;72219;48.186;11.554;2024-02-16T03:48:35;95646.22;;;16.64;46.06
82555;BME280;72219;48.186;11.554;2024-02-16T03:51:00;95635.44;;;16.52;46.25
82555;BME280;72219;48.186;11.554;2024-02-16T03:53:28;95641.09;;;16.56;46.09
82555;BME280;72219;48.186;11.554;2024-02-16T03:55:53;95657.59;;;16.56;46.11
82555;BME280;72219;48.186;11.554;2024-02-16T03:58:19;95644.72;;;16.55;46.02
82555;BME280;72219;48.186;11.554;2024-02-16T04:00:44;95647.47;;;16.53;45.95
82555;BME280;72219;48.186;11.554;2024-02-16T04:03:11;95655.25;;;16.61;45.78
82555;BME280;72219;48.186;11.554;2024-02-16T04:05:39;95652.00;;;16.59;46.12
82555;BME280;72219;48.186;11.554;2024-02-16T04:08:05;95655.25;;;16.61;45.76
82555;BME280;72219;48.186;11.554;2024-02-16T04:10:35;95655.25;;;16.61;46.07
82555;BME280;72219;48.186;11.554;2024-02-16T04:13:01;95661.09;;;16.63;45.81
82555;BME280;72219;48.186;11.554;2024-02-16T04:15:26;95653.16;;;16.57;46.06
82555;BME280;72219;48.186;11.554;2024-02-16T04:17:52;95655.50;;;16.52;45.96
82555;BME280;72219;48.186;11.554;2024-02-16T04:20:17;95647.22;;;16.48;46.27
82555;BME280;72219;48.186;11.554;2024-02-16T04:22:43;95649.72;;;16.41;46.00
82555;BME280;72219;48.186;11.554;2024-02-16T04:25:09;95660.72;;;16.52;45.98
82555;BME280;72219;48.186;11.554;2024-02-16T04:27:35;95663.88;;;16.47;46.14
82555;BME280;72219;48.186;11.554;2024-02-16T04:30:01;95640.63;;;16.37;45.66
82555;BME280;72219;48.186;11.554;2024-02-16T04:32:26;95661.44;;;16.45;46.06
82555;BME280;72219;48.186;11.554;2024-02-16T04:34:52;95663.59;;;16.42;46.00
82555;BME280;72219;48.186;11.554;2024-02-16T04:37:18;95670.38;;;16.51;46.14
82555;BME280;72219;48.186;11.554;2024-02-16T04:39:46;95667.09;;;16.49;45.91
82555;BME280;72219;48.186;11.554;2024-02-16T04:42:11;95653.94;;;16.42;45.62
82555;BME280;72219;48.186;11.554;2024-02-16T04:44:38;95664.66;;;16.47;45.83
82555;BME280;72219;48.186;11.554;2024-02-16T04:47:04;95661.78;;;16.42;46.30
82555;BME280;72219;48.186;11.554;2024-02-16T04:49:30;95661.34;;;16.39;46.28
82555;BME280;72219;48.186;11.554;2024-02-16T04:51:55;95663.31;;;16.37;46.02
82555;BME280;72219;48.186;11.554;2024-02-16T04:54:21;95664.38;;;16.42;46.03
82555;BME280;72219;48.186;11.554;2024-02-16T04:56:48;95672.22;;;16.42;45.71
82555;BME280;72219;48.186;11.554;2024-02-16T04:59:14;95665.41;;;16.41;46.16
82555;BME280;72219;48.186;11.554;2024-02-16T05:01:39;95665.41;;;16.41;45.75
82555;BME280;72219;48.186;11.554;2024-02-16T05:04:04;95663.41;;;16.43;45.69
82555;BME280;72219;48.186;11.554;2024-02-16T05:06:30;95662.59;;;16.43;46.00
82555;BME280;72219;48.186;11.554;2024-02-16T05:08:56;95663.94;;;16.39;46.16
82555;BME280;72219;48.186;11.554;2024-02-16T05:11:22;95660.75;;;16.28;46.44
82555;BME280;72219;48.186;11.554;2024-02-16T05:13:50;95667.63;;;16.29;46.28
82555;BME280;72219;48.186;11.554;2024-02-16T05:16:15;95664.03;;;16.30;46.06
82555;BME280;72219;48.186;11.554;2024-02-16T05:18:43;95659.13;;;16.27;46.30
82555;BME280;72219;48.186;11.554;2024-02-16T05:21:08;95671.13;;;16.37;46.16
82555;BME280;72219;48.186;11.554;2024-02-16T05:23:34;95640.13;;;16.19;46.17
82555;BME280;72219;48.186;11.554;2024-02-16T05:26:00;95672.47;;;16.33;46.06
82555;BME280;72219;48.186;11.554;2024-02-16T05:28:25;95660.41;;;16.31;45.94
82555;BME280;72219;48.186;11.554;2024-02-16T05:30:53;95661.53;;;16.37;46.18
82555;BME280;72219;48.186;11.554;2024-02-16T05:33:18;95667.25;;;16.33;45.78
82555;BME280;72219;48.186;11.554;2024-02-16T05:35:44;95664.34;;;16.27;45.97
82555;BME280;72219;48.186;11.554;2024-02-16T05:38:16;95669.06;;;16.32;45.86
82555;BME280;72219;48.186;11.554;2024-02-16T05:40:58;95653.47;;;16.24;45.83
82555;BME280;72219;48.186;11.554;2024-02-16T05:43:25;95669.25;;;16.30;46.03
82555;BME280;72219;48.186;11.554;2024-02-16T05:45:50;95664.66;;;16.33;45.93
82555;BME280;72219;48.186;11.554;2024-02-16T05:48:16;95653.09;;;16.27;46.37
82555;BME280;72219;48.186;11.554;2024-02-16T05:50:41;95661.41;;;16.30;45.92
82555;BME280;72219;48.186;11.554;2024-02-16T05:53:08;95660.16;;;16.26;46.08
82555;BME280;72219;48.186;11.554;2024-02-16T05:55:36;95659.19;;;16.19;46.28
82555;BME280;72219;48.186;11.554;2024-02-16T05:58:02;95663.44;;;16.20;45.76
82555;BME280;72219;48.186;11.554;2024-02-16T06:00:33;95673.34;;;16.25;46.07
82555;BME280;72219;48.186;11.554;2024-02-16T06:02:58;95669.75;;;16.26;46.17
82555;BME280;72219;48.186;11.554;2024-02-16T06:05:24;95678.75;;;16.23;46.38
82555;BME280;72219;48.186;11.554;2024-02-16T06:07:49;95672.06;;;16.21;46.01
82555;BME280;72219;48.186;11.554;2024-02-16T06:10:15;95675.63;;;16.28;45.95
82555;BME280;72219;48.186;11.554;2024-02-16T06:12:40;95680.84;;;16.28;45.89
82555;BME280;72219;48.186;11.554;2024-02-16T06:15:06;95683.97;;;16.23;45.94
82555;BME280;72219;48.186;11.554;2024-02-16T06:17:31;95688.84;;;16.26;45.67
82555;BME280;72219;48.186;11.554;2024-02-16T06:19:58;95675.63;;;16.28;45.56
82555;BME280;72219;48.186;11.554;2024-02-16T06:22:23;95687.59;;;16.22;45.71
82555;BME280;72219;48.186;11.554;2024-02-16T06:24:48;95699.75;;;16.30;45.79
82555;BME280;72219;48.186;11.554;2024-02-16T06:27:15;95688.03;;;16.26;46.06
82555;BME280;72219;48.186;11.554;2024-02-16T06:29:41;95700.91;;;16.27;45.51
82555;BME280;72219;48.186;11.554;2024-02-16T06:32:06;95710.72;;;16.25;45.89
82555;BME280;72219;48.186;11.554;2024-02-16T06:34:32;95704.69;;;16.25;46.04
82555;BME280;72219;48.186;11.554;2024-02-16T06:36:58;95715.22;;;16.31;46.00
82555;BME280;72219;48.186;11.554;2024-02-16T06:39:24;95716.88;;;16.33;45.86
82555;BME280;72219;48.186;11.554;2024-02-16T06:41:50;95711.09;;;16.22;45.75
82555;BME280;72219;48.186;11.554;2024-02-16T06:44:17;95727.66;;;16.29;45.83
82555;BME280;72219;48.186;11.554;2024-02-16T06:46:43;95727.00;;;16.27;45.60
82555;BME280;72219;48.186;11.554;2024-02-16T06:49:10;95744.06;;;16.38;45.24
82555;BME280;72219;48.186;11.554;2024-02-16T06:51:36;95745.22;;;16.36;45.80
82555;BME280;72219;48.186;11.554;2024-02-16T06:54:02;95745.22;;;16.36;45.52
82555;BME280;72219;48.186;11.554;2024-02-16T06:56:28;95755.34;;;16.39;45.71
82555;BME280;72219;48.186;11.554;2024-02-16T06:58:54;95756.03;;;16.33;45.67
82555;BME280;72219;48.186;11.554;2024-02-16T07:01:19;95758.88;;;16.46;45.52
82555;BME280;72219;48.186;11.554;2024-02-16T07:03:46;95754.81;;;16.43;45.30
82555;BME280;72219;48.186;11.554;2024-02-16T07:06:12;95758.50;;;16.49;45.21
82555;BME280;72219;48.186;11.554;2024-02-16T07:08:40;95753.03;;;16.44;44.99
82555;BME280;72219;48.186;11.554;2024-02-16T07:11:06;95759.16;;;16.51;45.08
82555;BME280;72219;48.186;11.554;2024-02-16T07:13:34;95749.53;;;16.52;45.14
82555;BME280;72219;48.186;11.554;2024-02-16T07:16:00;95763.34;;;16.60;44.95
82555;BME280;72219;48.186;11.554;2024-02-16T07:18:25;95763.09;;;16.70;44.94
82555;BME280;72219;48.186;11.554;2024-02-16T07:20:51;95766.50;;;16.71;44.37
82555;BME280;72219;48.186;11.554;2024-02-16T07:23:16;95766.25;;;16.65;44.56
82555;BME280;72219;48.186;11.554;2024-02-16T07:25:43;95769.38;;;16.61;44.52
82555;BME280;72219;48.186;11.554;2024-02-16T07:28:09;95772.63;;;16.63;44.98
82555;BME280;72219;48.186;11.554;2024-02-16T07:30:35;95765.88;;;16.69;44.59
82555;BME280;72219;48.186;11.554;2024-02-16T07:33:07;95746.28;;;16.50;44.85
82555;BME280;72219;48.186;11.554;2024-02-16T07:35:36;95774.72;;;16.68;44.50
82555;BME280;72219;48.186;11.554;2024-02-16T07:38:03;95768.13;;;16.72;44.68
82555;BME280;72219;48.186;11.554;2024-02-16T07:40:28;95778.22;;;16.75;44.50
82555;BME280;72219;48.186;11.554;2024-02-16T07:42:54;95776.44;;;16.75;44.75
82555;BME280;72219;48.186;11.554;2024-02-16T07:45:20;95769.13;;;16.71;44.29
82555;BME280;72219;48.186;11.554;2024-02-16T07:47:46;95782.03;;;16.72;44.58
82555;BME280;72219;48.186;11.554;2024-02-16T07:50:12;95782.06;;;16.64;44.54
82555;BME280;72219;48.186;11.554;2024-02-16T07:52:41;95777.75;;;16.56;45.32
82555;BME280;72219;48.186;11.554;2024-02-16T07:55:07;95787.72;;;16.53;45.40
82555;BME280;72219;48.186;11.554;2024-02-16T07:57:33;95787.72;;;16.53;45.73
82555;BME280;72219;48.186;11.554;2024-02-16T07:59:59;95787.53;;;16.54;46.14
82555;BME280;72219;48.186;11.554;2024-02-16T08:02:24;95789.78;;;16.57;45.78
82555;BME280;72219;48.186;11.554;2024-02-16T08:04:50;95782.31;;;16.54;46.12
82555;BME280;72219;48.186;11.554;2024-02-16T08:07:15;95789.00;;;16.57;46.03
82555;BME280;72219;48.186;11.554;2024-02-16T08:09:45;95783.25;;;16.61;46.16
82555;BME280;72219;48.186;11.554;2024-02-16T08:12:12;95784.47;;;16.74;46.10
82555;BME280;72219;48.186;11.554;2024-02-16T08:14:39;95791.06;;;16.85;46.17
82555;BME280;72219;48.186;11.554;2024-02-16T08:17:08;95786.28;;;16.88;45.82
82555;BME280;72219;48.186;11.554;2024-02-16T08:19:35;95792.81;;;16.92;46.31
82555;BME280;72219;48.186;11.554;2024-02-16T08:22:02;95788.06;;;16.96;46.05
82555;BME280;72219;48.186;11.554;2024-02-16T08:24:31;95791.75;;;17.02;45.79
82555;BME280;72219;48.186;11.554;2024-02-16T08:26:58;95799.88;;;17.07;45.85
82555;BME280;72219;48.186;11.554;2024-02-16T08:29:24;95804.03;;;17.16;46.11
82555;BME280;72219;48.186;11.554;2024-02-16T08:31:50;95781.41;;;17.08;45.50
82555;BME280;72219;48.186;11.554;2024-02-16T08:34:16;95799.72;;;17.23;45.53
82555;BME280;72219;48.186;11.554;2024-02-16T08:36:45;95791.44;;;17.20;45.82
82555;BME280;72219;48.186;11.554;2024-02-16T08:39:12;95802.00;;;17.26;45.75
82555;BME280;72219;48.186;11.554;2024-02-16T08:41:38;95803.88;;;17.32;45.25
82555;BME280;72219;48.186;11.554;2024-02-16T08:44:04;95808.41;;;17.39;45.37
82555;BME280;72219;48.186;11.554;2024-02-16T08:46:30;95804.63;;;17.41;45.36
82555;BME280;72219;48.186;11.554;2024-02-16T08:48:55;95803.59;;;17.42;45.37
82555;BME280;72219;48.186;11.554;2024-02-16T08:51:21;95806.69;;;17.46;45.19
82555;BME280;72219;48.186;11.554;2024-02-16T08:53:46;95796.88;;;17.48;44.99
82555;BME280;72219;48.186;11.554;2024-02-16T08:56:13;95799.19;;;17.58;44.88
82555;BME280;72219;48.186;11.554;2024-02-16T08:58:38;95798.41;;;17.57;44.91
82555;BME280;72219;48.186;11.554;2024-02-16T09:01:04;95808.31;;;17.62;44.71
82555;BME280;72219;48.186;11.554;2024-02-16T09:03:30;95802.38;;;17.68;44.68
82555;BME280;72219;48.186;11.554;2024-02-16T09:06:02;95804.97;;;17.68;44.86
82555;BME280;72219;48.186;11.554;2024-02-16T09:08:27;95805.78;;;17.69;44.59
82555;BME280;72219;48.186;11.554;2024-02-16T09:11:01;95804.72;;;17.63;45.42
82555;BME280;72219;48.186;11.554;2024-02-16T09:13:30;95803.25;;;17.75;45.36
82555;BME280;72219;48.186;11.554;2024-02-16T09:15:56;95805.97;;;17.67;45.66
82555;BME280;72219;48.186;11.554;2024-02-16T09:18:21;95800.19;;;17.72;45.50
82555;BME280;72219;48.186;11.554;2024-02-16T09:20:47;95802.44;;;17.75;45.65
82555;BME280;72219;48.186;11.554;2024-02-16T09:23:16;95810.19;;;17.83;45.49
82555;BME280;72219;48.186;11.554;2024-02-16T09:25:42;95811.47;;;17.87;45.60
82555;BME280;72219;48.186;11.554;2024-02-16T09:28:08;95811.47;;;17.87;45.87
82555;BME280;72219;48.186;11.554;2024-02-16T09:30:37;95807.59;;;17.83;45.82
82555;BME280;72219;48.186;11.554;2024-02-16T09:33:02;95802.34;;;17.98;45.43
82555;BME280;72219;48.186;11.554;2024-02-16T09:35:27;95814.44;;;17.99;45.64
82555;BME280;72219;48.186;11.554;2024-02-16T09:37:53;95813.25;;;18.02;45.92
82555;BME280;72219;48.186;11.554;2024-02-16T09:40:18;95805.47;;;18.08;45.63
82555;BME280;72219;48.186;11.554;2024-02-16T09:42:48;95800.63;;;18.05;45.65
82555;BME280;72219;48.186;11.554;2024-02-16T09:45:15;95798.72;;;18.14;45.55
82555;BME280;72219;48.186;11.554;2024-02-16T09:47:42;95809.28;;;18.21;45.29
82555;BME280;72219;48.186;11.554;2024-02-16T09:50:09;95809.50;;;18.26;45.32
82555;BME280;72219;48.186;11.554;2024-02-16T09:52:36;95805.69;;;18.28;45.09
82555;BME280;72219;48.186;11.554;2024-02-16T09:55:02;95808.38;;;18.35;45.48
82555;BME280;72219;48.186;11.554;2024-02-16T09:57:28;95802.81;;;18.38;45.14
82555;BME280;72219;48.186;11.554;2024-02-16T09:59:54;95803.59;;;18.39;44.70
82555;BME280;72219;48.186;11.554;2024-02-16T10:02:21;95805.38;;;18.53;44.00
82555;BME280;72219;48.186;11.554;2024-02-16T10:04:46;95787.94;;;18.45;44.08
82555;BME280;72219;48.186;11.554;2024-02-16T10:07:11;95797.84;;;18.50;44.13
82555;BME280;72219;48.186;11.554;2024-02-16T10:09:38;95808.06;;;18.60;44.03
82555;BME280;72219;48.186;11.554;2024-02-16T10:12:05;95814.69;;;18.62;44.09
82555;BME280;72219;48.186;11.554;2024-02-16T10:14:32;95810.28;;;18.63;44.13
82555;BME280;72219;48.186;11.554;2024-02-16T10:17:05;95808.28;;;18.65;44.02
82555;BME280;72219;48.186;11.554;2024-02-16T10:19:31;95806.22;;;18.60;44.05
82555;BME280;72219;48.186;11.554;2024-02-16T10:22:11;95810.72;;;18.66;44.35
82555;BME280;72219;48.186;11.554;2024-02-16T10:24:38;95808.72;;;18.69;44.08
82555;BME280;72219;48.186;11.554;2024-02-16T10:27:13;95804.53;;;18.74;43.95
82555;BME280;72219;48.186;11.554;2024-02-16T10:29:40;95807.22;;;18.81;44.02
82555;BME280;72219;48.186;11.554;2024-02-16T10:32:10;95818.53;;;18.81;44.14
82555;BME280;72219;48.186;11.554;2024-02-16T10:34:37;95812.72;;;18.86;44.01
82555;BME280;72219;48.186;11.554;2024-02-16T10:37:05;95812.00;;;18.92;43.87
82555;BME280;72219;48.186;11.554;2024-02-16T10:39:32;95818.28;;;18.98;43.52
82555;BME280;72219;48.186;11.554;2024-02-16T10:41:58;95814.66;;;18.99;43.66
82555;BME280;72219;48.186;11.554;2024-02-16T10:44:27;95807.78;;;18.98;43.73
82555;BME280;72219;48.186;11.554;2024-02-16T10:46:53;95813.50;;;19.08;43.66
82555;BME280;72219;48.186;11.554;2024-02-16T10:49:22;95811.31;;;19.12;43.64
82555;BME280;72219;48.186;11.554;2024-02-16T10:51:50;95810.72;;;19.10;43.73
82555;BME280;72219;48.186;11.554;2024-02-16T10:54:22;95815.38;;;19.14;43.52
82555;BME280;72219;48.186;11.554;2024-02-16T10:56:53;95793.59;;;19.14;43.62
82555;BME280;72219;48.186;11.554;2024-02-16T10:59:21;95806.31;;;19.17;43.64
82555;BME280;72219;48.186;11.554;2024-02-16T11:01:59;95809.19;;;19.22;43.34
82555;BME280;72219;48.186;11.554;2024-02-16T11:04:38;95799.53;;;19.29;43.55
82555;BME280;72219;48.186;11.554;2024-02-16T11:07:11;95796.72;;;19.31;43.49
82555;BME280;72219;48.186;11.554;2024-02-16T11:09:39;95807.56;;;19.56;43.24
82555;BME280;72219;48.186;11.554;2024-02-16T11:12:08;95798.94;;;19.62;42.75
82555;BME280;72219;48.186;11.554;2024-02-16T11:17:12;95801.44;;;19.77;41.97
82555;BME280;72219;48.186;11.554;2024-02-16T11:19:45;95793.28;;;19.65;42.27
82555;BME280;72219;48.186;11.554;2024-02-16T11:22:15;95796.16;;;19.71;42.06
82555;BME280;72219;48.186;11.554;2024-02-16T11:24:47;95797.38;;;19.75;41.93
82555;BME280;72219;48.186;11.554;2024-02-16T11:27:14;95788.88;;;19.73;41.98
82555;BME280;72219;48.186;11.554;2024-02-16T11:29:44;95780.81;;;19.74;41.97
82555;BME280;72219;48.186;11.554;2024-02-16T11:32:12;95781.28;;;19.85;41.53
82555;BME280;72219;48.186;11.554;2024-02-16T11:34:37;95760.00;;;19.73;41.36
82555;BME280;72219;48.186;11.554;2024-02-16T11:37:06;95782.09;;;19.85;41.50
82555;BME280;72219;48.186;11.554;2024-02-16T11:39:31;95773.63;;;19.83;41.51
82555;BME280;72219;48.186;11.554;2024-02-16T11:42:08;95771.59;;;19.85;41.47
82555;BME280;72219;48.186;11.554;2024-02-16T11:44:36;95767.09;;;19.79;41.31
82555;BME280;72219;48.186;11.554;2024-02-16T11:47:05;95768.38;;;19.83;41.34
82555;BME280;72219;48.186;11.554;2024-02-16T11:49:32;95773.97;;;19.80;41.36
82555;BME280;72219;48.186;11.554;2024-02-16T11:52:00;95778.22;;;19.81;41.35
82555;BME280;72219;48.186;11.554;2024-02-16T11:54:26;95776.59;;;19.80;41.48
82555;BME280;72219;48.186;11.554;2024-02-16T11:56:52;95778.03;;;19.82;41.44
82555;BME280;72219;48.186;11.554;2024-02-16T11:59:21;95778.03;;;19.82;41.31
82555;BME280;72219;48.186;11.554;2024-02-16T12:01:59;95765.88;;;19.75;41.11
82555;BME280;72219;48.186;11.554;2024-02-16T12:04:26;95776.84;;;19.85;41.32
82555;BME280;72219;48.186;11.554;2024-02-16T12:06:59;95776.06;;;19.91;41.14
82555;BME280;72219;48.186;11.554;2024-02-16T12:09:25;95774.84;;;19.87;40.98
82555;BME280;72219;48.186;11.554;2024-02-16T12:11:53;95779.91;;;19.95;41.00
82555;BME280;72219;48.186;11.554;2024-02-16T12:14:23;95771.63;;;19.98;40.80
82555;BME280;72219;48.186;11.554;2024-02-16T12:16:55;95777.28;;;19.95;40.59
82555;BME280;72219;48.186;11.554;2024-02-16T12:19:21;95778.13;;;20.03;40.66
82555;BME280;72219;48.186;11.554;2024-02-16T12:21:57;95784.19;;;20.03;40.67
82555;BME280;72219;48.186;11.554;2024-02-16T12:24:23;95776.53;;;20.02;40.52
82555;BME280;72219;48.186;11.554;2024-02-16T12:26:49;95784.00;;;20.05;40.60
82555;BME280;72219;48.186;11.554;2024-02-16T12:29:16;95779.53;;;20.05;40.58
82555;BME280;72219;48.186;11.554;2024-02-16T12:31:49;95778.34;;;20.08;40.43
82555;BME280;72219;48.186;11.554;2024-02-16T12:34:14;95781.38;;;20.05;40.26
82555;BME280;72219;48.186;11.554;2024-02-16T12:36:40;95781.38;;;20.11;39.83
82555;BME280;72219;48.186;11.554;2024-02-16T12:39:09;95785.66;;;20.19;39.85
82555;BME280;72219;48.186;11.554;2024-02-16T12:41:38;95784.25;;;20.23;39.71
82555;BME280;72219;48.186;11.554;2024-02-16T12:44:06;95767.66;;;20.16;39.75
82555;BME280;72219;48.186;11.554;2024-02-16T12:46:32;95765.06;;;20.29;39.26
82555;BME280;72219;48.186;11.554;2024-02-16T12:48:57;95788.50;;;20.38;39.31
82555;BME280;72219;48.186;11.554;2024-02-16T12:51:23;95779.84;;;20.44;38.90